Terminal Aerodrome Forecast
Issued by NWS Charleston, WV

Current Version | Previous Version | Graphics & Text | Print | Product List | Glossary On
Versions: 1 2 3 4 5 6 7 8 9 10 11 12 13 14 15 16 17 18 19 20 21 22 23 24 25 26 27
000
FTUS41 KRLX 270208 AAA
TAFCRW
TAF AMD
KCRW 270208Z 2702/2724 19006KT 4SM TSRA SCT030CB OVC050
      TEMPO 2702/2703 24015G28KT 3/4SM +TSRA BR SCT001 BKN020CB
     FM270400 19005KT 5SM SHRA BR VCTS SCT025CB BKN050
      TEMPO 2704/2706 1SM BR SCT001
     FM270700 VRB03KT 3SM BR SCT001 BKN025
     FM271400 22006KT 6SM BR BKN020
     FM271600 23007KT P6SM BKN035=

USA.gov is the U.S. government's official web portal to all federal, state and local government web resources and services.